sensor_id;sensor_type;location;lat;lon;timestamp;pressure;altitude;pressure_sealevel;temperature;humidity
21111;BME280;10713;51.912;4.494;2023-03-01T00:01:07;103189.34;;;3.44;100.00
21111;BME280;10713;51.912;4.494;2023-03-01T00:03:33;103185.78;;;3.41;100.00
21111;BME280;10713;51.912;4.494;2023-03-01T00:05:59;103188.56;;;3.47;100.00
21111;BME280;10713;51.912;4.494;2023-03-01T00:08:25;103188.50;;;3.45;100.00
21111;BME280;10713;51.912;4.494;2023-03-01T00:13:27;103184.16;;;3.46;100.00
21111;BME280;10713;51.912;4.494;2023-03-01T00:15:52;103184.22;;;3.47;100.00
21111;BME280;10713;51.912;4.494;2023-03-01T00:18:17;103177.13;;;3.43;100.00
21111;BME280;10713;51.912;4.494;2023-03-01T00:20:49;103185.72;;;3.39;100.00
21111;BME280;10713;51.912;4.494;2023-03-01T00:23:15;103183.13;;;3.39;100.00
21111;BME280;10713;51.912;4.494;2023-03-01T00:25:43;103171.03;;;3.43;100.00
21111;BME280;10713;51.912;4.494;2023-03-01T00:28:08;103171.72;;;3.35;100.00
21111;BME280;10713;51.912;4.494;2023-03-01T00:30:34;103175.28;;;3.39;100.00
21111;BME280;10713;51.912;4.494;2023-03-01T00:32:59;103166.66;;;3.42;100.00
21111;BME280;10713;51.912;4.494;2023-03-01T00:35:25;103169.22;;;3.40;100.00
21111;BME280;10713;51.912;4.494;2023-03-01T00:37:50;103173.63;;;3.41;100.00
21111;BME280;10713;51.912;4.494;2023-03-01T00:40:25;103174.50;;;3.42;100.00
21111;BME280;10713;51.912;4.494;2023-03-01T00:42:51;103177.03;;;3.40;100.00
21111;BME280;10713;51.912;4.494;2023-03-01T00:45:16;103170.72;;;3.32;100.00
21111;BME280;10713;51.912;4.494;2023-03-01T00:47:42;103178.66;;;3.35;100.00
21111;BME280;10713;51.912;4.494;2023-03-01T00:50:08;103178.66;;;3.35;100.00
21111;BME280;10713;51.912;4.494;2023-03-01T00:52:34;103174.34;;;3.37;100.00
21111;BME280;10713;51.912;4.494;2023-03-01T00:54:59;103176.16;;;3.39;100.00
21111;BME280;10713;51.912;4.494;2023-03-01T00:57:24;103172.59;;;3.36;100.00
21111;BME280;10713;51.912;4.494;2023-03-01T00:59:50;103176.88;;;3.34;100.00
21111;BME280;10713;51.912;4.494;2023-03-01T01:02:18;103176.97;;;3.37;100.00
21111;BME280;10713;51.912;4.494;2023-03-01T01:04:43;103173.34;;;3.32;100.00
21111;BME280;10713;51.912;4.494;2023-03-01T01:07:09;103172.44;;;3.31;100.00
21111;BME280;10713;51.912;4.494;2023-03-01T01:09:34;103171.56;;;3.29;100.00
21111;BME280;10713;51.912;4.494;2023-03-01T01:12:00;103166.19;;;3.25;100.00
21111;BME280;10713;51.912;4.494;2023-03-01T01:14:25;103171.41;;;3.25;100.00
21111;BME280;10713;51.912;4.494;2023-03-01T01:16:50;103176.53;;;3.22;100.00
21111;BME280;10713;51.912;4.494;2023-03-01T01:19:16;103177.19;;;3.14;100.00
21111;BME280;10713;51.912;4.494;2023-03-01T01:21:41;103169.34;;;3.14;100.00
21111;BME280;10713;51.912;4.494;2023-03-01T01:24:08;103172.81;;;3.13;100.00
21111;BME280;10713;51.912;4.494;2023-03-01T01:26:34;103167.47;;;3.09;100.00
21111;BME280;10713;51.912;4.494;2023-03-01T01:29:03;103161.41;;;3.10;100.00
21111;BME280;10713;51.912;4.494;2023-03-01T01:31:30;103153.53;;;3.08;100.00
21111;BME280;10713;51.912;4.494;2023-03-01T01:33:57;103156.19;;;3.10;100.00
21111;BME280;10713;51.912;4.494;2023-03-01T01:36:22;103136.91;;;3.05;100.00
21111;BME280;10713;51.912;4.494;2023-03-01T01:38:48;103143.88;;;3.04;100.00
21111;BME280;10713;51.912;4.494;2023-03-01T01:41:14;103123.91;;;3.06;100.00
21111;BME280;10713;51.912;4.494;2023-03-01T01:43:44;103129.97;;;3.05;100.00
21111;BME280;10713;51.912;4.494;2023-03-01T01:49:10;103121.25;;;3.05;100.00
21111;BME280;10713;51.912;4.494;2023-03-01T01:51:40;103117.75;;;3.04;100.00
21111;BME280;10713;51.912;4.494;2023-03-01T01:54:11;103112.41;;;3.00;100.00
21111;BME280;10713;51.912;4.494;2023-03-01T01:56:39;103109.84;;;3.01;100.00
21111;BME280;10713;51.912;4.494;2023-03-01T01:59:06;103114.19;;;3.01;100.00
21111;BME280;10713;51.912;4.494;2023-03-01T02:01:32;103116.81;;;3.02;100.00
21111;BME280;10713;51.912;4.494;2023-03-01T02:03:58;103116.75;;;2.99;100.00
21111;BME280;10713;51.912;4.494;2023-03-01T02:08:57;103110.66;;;2.99;100.00
21111;BME280;10713;51.912;4.494;2023-03-01T02:11:24;103111.50;;;2.98;100.00
21111;BME280;10713;51.912;4.494;2023-03-01T02:13:51;103106.06;;;2.91;100.00
21111;BME280;10713;51.912;4.494;2023-03-01T02:16:18;103114.63;;;2.86;100.00
21111;BME280;10713;51.912;4.494;2023-03-01T02:18:44;103112.06;;;2.87;100.00
21111;BME280;10713;51.912;4.494;2023-03-01T02:22:23;103105.25;;;2.92;100.00
21111;BME280;10713;51.912;4.494;2023-03-01T02:25:52;103102.56;;;2.89;100.00
21111;BME280;10713;51.912;4.494;2023-03-01T02:30:35;103099.50;;;2.74;100.00
21111;BME280;10713;51.912;4.494;2023-03-01T02:33:02;103107.41;;;2.77;100.00
21111;BME280;10713;51.912;4.494;2023-03-01T02:35:35;103099.63;;;2.79;100.00
21111;BME280;10713;51.912;4.494;2023-03-01T02:38:02;103100.53;;;2.79;100.00
21111;BME280;10713;51.912;4.494;2023-03-01T02:40:30;103098.78;;;2.80;100.00
21111;BME280;10713;51.912;4.494;2023-03-01T02:42:58;103093.47;;;2.77;100.00
21111;BME280;10713;51.912;4.494;2023-03-01T02:45:24;103097.91;;;2.79;100.00
21111;BME280;10713;51.912;4.494;2023-03-01T02:47:53;103099.66;;;2.80;100.00
21111;BME280;10713;51.912;4.494;2023-03-01T02:50:33;103093.31;;;2.70;100.00
21111;BME280;10713;51.912;4.494;2023-03-01T02:55:58;103092.16;;;2.61;100.00
21111;BME280;10713;51.912;4.494;2023-03-01T02:58:24;103085.13;;;2.58;100.00
21111;BME280;10713;51.912;4.494;2023-03-01T03:00:50;103082.56;;;2.60;100.00
21111;BME280;10713;51.912;4.494;2023-03-01T03:03:20;103079.31;;;2.67;100.00
21111;BME280;10713;51.912;4.494;2023-03-01T03:05:46;103077.41;;;2.61;100.00
21111;BME280;10713;51.912;4.494;2023-03-01T03:08:12;103081.59;;;2.56;100.00
21111;BME280;10713;51.912;4.494;2023-03-01T03:10:40;103086.81;;;2.56;100.00
21111;BME280;10713;51.912;4.494;2023-03-01T03:13:13;103077.44;;;2.63;100.00
21111;BME280;10713;51.912;4.494;2023-03-01T03:15:40;103075.75;;;2.65;100.00
21111;BME280;10713;51.912;4.494;2023-03-01T03:18:09;103063.69;;;2.68;100.00
21111;BME280;10713;51.912;4.494;2023-03-01T03:20:35;103073.22;;;2.66;100.00
21111;BME280;10713;51.912;4.494;2023-03-01T03:23:01;103065.31;;;2.63;100.00
21111;BME280;10713;51.912;4.494;2023-03-01T03:25:28;103073.22;;;2.66;100.00
21111;BME280;10713;51.912;4.494;2023-03-01T03:27:54;103062.81;;;2.68;100.00
21111;BME280;10713;51.912;4.494;2023-03-01T03:30:28;103063.84;;;2.75;100.00
21111;BME280;10713;51.912;4.494;2023-03-01T03:32:54;103064.59;;;2.69;100.00
21111;BME280;10713;51.912;4.494;2023-03-01T03:35:23;103059.47;;;2.72;100.00
21111;BME280;10713;51.912;4.494;2023-03-01T03:37:50;103062.06;;;2.72;100.00
21111;BME280;10713;51.912;4.494;2023-03-01T03:40:41;103059.47;;;2.72;100.00
21111;BME280;10713;51.912;4.494;2023-03-01T03:43:09;103058.53;;;2.70;100.00
21111;BME280;10713;51.912;4.494;2023-03-01T03:45:36;103056.63;;;2.64;100.00
21111;BME280;10713;51.912;4.494;2023-03-01T03:48:02;103055.66;;;2.61;100.00
21111;BME280;10713;51.912;4.494;2023-03-01T03:50:28;103052.97;;;2.58;100.00
21111;BME280;10713;51.912;4.494;2023-03-01T03:52:54;103047.78;;;2.59;100.00
21111;BME280;10713;51.912;4.494;2023-03-01T03:55:19;103052.16;;;2.60;100.00
21111;BME280;10713;51.912;4.494;2023-03-01T03:57:47;103058.22;;;2.59;100.00
21111;BME280;10713;51.912;4.494;2023-03-01T04:00:18;103058.19;;;2.58;100.00
21111;BME280;10713;51.912;4.494;2023-03-01T04:02:45;103053.69;;;2.54;100.00
21111;BME280;10713;51.912;4.494;2023-03-01T04:05:12;103053.69;;;2.52;100.00
21111;BME280;10713;51.912;4.494;2023-03-01T04:07:40;103052.69;;;2.48;100.00
21111;BME280;10713;51.912;4.494;2023-03-01T04:10:08;103045.69;;;2.47;100.00
21111;BME280;10713;51.912;4.494;2023-03-01T04:12:34;103047.38;;;2.45;100.00
21111;BME280;10713;51.912;4.494;2023-03-01T04:15:00;103050.84;;;2.44;100.00
21111;BME280;10713;51.912;4.494;2023-03-01T04:17:26;103042.06;;;2.42;100.00
21111;BME280;10713;51.912;4.494;2023-03-01T04:19:51;103047.28;;;2.42;100.00
21111;BME280;10713;51.912;4.494;2023-03-01T04:22:16;103051.78;;;2.46;100.00
21111;BME280;10713;51.912;4.494;2023-03-01T04:24:43;103050.91;;;2.47;100.00
21111;BME280;10713;51.912;4.494;2023-03-01T04:27:10;103046.50;;;2.45;100.00
21111;BME280;10713;51.912;4.494;2023-03-01T04:29:35;103048.03;;;2.38;100.00
21111;BME280;10713;51.912;4.494;2023-03-01T04:32:00;103047.97;;;2.35;100.00
21111;BME280;10713;51.912;4.494;2023-03-01T04:34:26;103045.38;;;2.37;100.00
21111;BME280;10713;51.912;4.494;2023-03-01T04:36:52;103045.53;;;2.41;100.00
21111;BME280;10713;51.912;4.494;2023-03-01T04:39:18;103045.44;;;2.38;100.00
21111;BME280;10713;51.912;4.494;2023-03-01T04:41:43;103041.75;;;2.32;100.00
21111;BME280;10713;51.912;4.494;2023-03-01T04:44:08;103036.53;;;2.32;100.00
21111;BME280;10713;51.912;4.494;2023-03-01T04:46:35;103037.13;;;2.23;100.00
21111;BME280;10713;51.912;4.494;2023-03-01T04:49:01;103029.19;;;2.18;100.00
21111;BME280;10713;51.912;4.494;2023-03-01T04:51:27;103026.59;;;2.18;100.00
21111;BME280;10713;51.912;4.494;2023-03-01T04:53:52;103025.75;;;2.19;100.00
21111;BME280;10713;51.912;4.494;2023-03-01T04:56:18;103023.91;;;2.15;100.00
21111;BME280;10713;51.912;4.494;2023-03-01T04:58:44;103020.09;;;2.04;100.00
21111;BME280;10713;51.912;4.494;2023-03-01T05:01:11;103019.22;;;2.03;100.00
21111;BME280;10713;51.912;4.494;2023-03-01T05:03:41;103013.00;;;2.00;100.00
21111;BME280;10713;51.912;4.494;2023-03-01T05:06:07;103013.75;;;1.96;100.00
21111;BME280;10713;51.912;4.494;2023-03-01T05:08:32;103014.38;;;1.89;100.00
21111;BME280;10713;51.912;4.494;2023-03-01T05:10:59;103008.16;;;1.84;100.00
21111;BME280;10713;51.912;4.494;2023-03-01T05:13:25;103008.19;;;1.85;100.00
21111;BME280;10713;51.912;4.494;2023-03-01T05:15:55;103006.81;;;1.96;100.00
21111;BME280;10713;51.912;4.494;2023-03-01T05:18:21;103005.88;;;1.94;100.00
21111;BME280;10713;51.912;4.494;2023-03-01T05:20:54;103005.00;;;1.94;100.00
21111;BME280;10713;51.912;4.494;2023-03-01T05:23:21;103002.47;;;1.97;100.00
21111;BME280;10713;51.912;4.494;2023-03-01T05:25:47;103002.53;;;1.98;100.00
21111;BME280;10713;51.912;4.494;2023-03-01T05:28:13;102990.53;;;2.03;100.00
21111;BME280;10713;51.912;4.494;2023-03-01T05:30:39;102986.25;;;2.06;100.00
21111;BME280;10713;51.912;4.494;2023-03-01T05:33:05;102989.78;;;2.08;100.00
21111;BME280;10713;51.912;4.494;2023-03-01T05:35:35;102974.16;;;2.08;100.00
21111;BME280;10713;51.912;4.494;2023-03-01T05:38:01;102970.53;;;2.02;100.00
21111;BME280;10713;51.912;4.494;2023-03-01T05:40:26;102970.41;;;1.98;100.00
21111;BME280;10713;51.912;4.494;2023-03-01T05:42:54;102964.09;;;1.91;100.00
21111;BME280;10713;51.912;4.494;2023-03-01T05:45:21;102962.50;;;1.95;100.00
21111;BME280;10713;51.912;4.494;2023-03-01T05:47:48;102954.63;;;1.93;100.00
21111;BME280;10713;51.912;4.494;2023-03-01T05:50:19;102970.34;;;1.96;100.00
21111;BME280;10713;51.912;4.494;2023-03-01T05:52:57;102968.63;;;1.97;100.00
21111;BME280;10713;51.912;4.494;2023-03-01T05:55:23;102969.31;;;1.91;100.00
21111;BME280;10713;51.912;4.494;2023-03-01T05:57:48;102964.94;;;1.90;100.00
21111;BME280;10713;51.912;4.494;2023-03-01T06:00:17;102965.97;;;1.95;100.00
21111;BME280;10713;51.912;4.494;2023-03-01T06:02:42;102962.50;;;1.95;100.00
21111;BME280;10713;51.912;4.494;2023-03-01T06:05:09;102964.19;;;1.94;100.00
21111;BME280;10713;51.912;4.494;2023-03-01T06:07:35;102961.59;;;1.94;100.00
21111;BME280;10713;51.912;4.494;2023-03-01T06:10:01;102958.00;;;1.91;100.00
21111;BME280;10713;51.912;4.494;2023-03-01T06:12:30;102958.00;;;1.89;100.00
21111;BME280;10713;51.912;4.494;2023-03-01T06:14:55;102953.59;;;1.88;100.00
21111;BME280;10713;51.912;4.494;2023-03-01T06:17:21;102952.81;;;1.91;100.00
21111;BME280;10713;51.912;4.494;2023-03-01T06:19:46;102957.28;;;1.95;100.00
21111;BME280;10713;51.912;4.494;2023-03-01T06:22:12;102962.25;;;1.87;100.00
21111;BME280;10713;51.912;4.494;2023-03-01T06:24:38;102968.16;;;1.82;100.00
21111;BME280;10713;51.912;4.494;2023-03-01T06:27:03;102972.69;;;1.87;100.00
21111;BME280;10713;51.912;4.494;2023-03-01T06:29:29;102968.34;;;1.88;100.00
21111;BME280;10713;51.912;4.494;2023-03-01T06:31:54;102973.63;;;1.89;100.00
21111;BME280;10713;51.912;4.494;2023-03-01T06:34:20;102973.28;;;1.78;100.00
21111;BME280;10713;51.912;4.494;2023-03-01T06:36:47;102973.91;;;1.71;100.00
21111;BME280;10713;51.912;4.494;2023-03-01T06:39:12;102981.94;;;1.77;100.00
21111;BME280;10713;51.912;4.494;2023-03-01T06:41:37;102975.34;;;2.19;100.00
21111;BME280;10713;51.912;4.494;2023-03-01T06:44:03;102987.25;;;3.03;100.00
21111;BME280;10713;51.912;4.494;2023-03-01T06:46:28;102978.75;;;3.82;100.00
21111;BME280;10713;51.912;4.494;2023-03-01T06:48:53;102970.84;;;4.63;100.00
21111;BME280;10713;51.912;4.494;2023-03-01T06:51:19;102971.34;;;5.39;100.00
21111;BME280;10713;51.912;4.494;2023-03-01T06:53:46;102960.88;;;5.95;100.00
21111;BME280;10713;51.912;4.494;2023-03-01T06:56:11;102956.34;;;6.55;100.00
21111;BME280;10713;51.912;4.494;2023-03-01T06:58:37;102950.81;;;7.10;100.00
21111;BME280;10713;51.912;4.494;2023-03-01T07:01:08;102959.03;;;7.54;100.00
21111;BME280;10713;51.912;4.494;2023-03-01T07:03:34;102953.09;;;7.86;100.00
21111;BME280;10713;51.912;4.494;2023-03-01T07:05:59;102957.69;;;8.30;100.00
21111;BME280;10713;51.912;4.494;2023-03-01T07:08:25;102946.47;;;8.88;100.00
21111;BME280;10713;51.912;4.494;2023-03-01T07:10:57;102941.19;;;9.63;100.00
21111;BME280;10713;51.912;4.494;2023-03-01T07:13:23;102931.19;;;10.54;100.00
21111;BME280;10713;51.912;4.494;2023-03-01T07:15:48;102936.16;;;11.00;100.00
21111;BME280;10713;51.912;4.494;2023-03-01T07:18:14;102927.06;;;11.35;100.00
21111;BME280;10713;51.912;4.494;2023-03-01T07:20:39;102931.94;;;11.75;100.00
21111;BME280;10713;51.912;4.494;2023-03-01T07:23:05;102933.03;;;12.32;100.00
21111;BME280;10713;51.912;4.494;2023-03-01T07:25:31;102924.53;;;12.72;100.00
21111;BME280;10713;51.912;4.494;2023-03-01T07:27:57;102923.88;;;13.14;100.00
21111;BME280;10713;51.912;4.494;2023-03-01T07:30:23;102919.69;;;13.98;100.00
21111;BME280;10713;51.912;4.494;2023-03-01T07:32:51;102909.44;;;14.62;100.00
21111;BME280;10713;51.912;4.494;2023-03-01T07:35:16;102916.00;;;15.20;100.00
21111;BME280;10713;51.912;4.494;2023-03-01T07:37:42;102915.72;;;15.65;100.00
21111;BME280;10713;51.912;4.494;2023-03-01T07:40:08;102919.22;;;15.98;100.00
21111;BME280;10713;51.912;4.494;2023-03-01T07:42:33;102908.78;;;16.50;100.00
21111;BME280;10713;51.912;4.494;2023-03-01T07:44:58;102915.25;;;16.71;100.00
21111;BME280;10713;51.912;4.494;2023-03-01T07:47:24;102909.75;;;16.77;85.69
21111;BME280;10713;51.912;4.494;2023-03-01T07:49:49;102912.16;;;17.11;94.58
21111;BME280;10713;51.912;4.494;2023-03-01T07:52:15;102912.00;;;17.16;92.77
21111;BME280;10713;51.912;4.494;2023-03-01T07:54:42;102918.78;;;17.00;80.33
21111;BME280;10713;51.912;4.494;2023-03-01T07:57:08;102925.38;;;16.88;71.94
21111;BME280;10713;51.912;4.494;2023-03-01T07:59:34;102909.56;;;17.60;68.50
21111;BME280;10713;51.912;4.494;2023-03-01T08:01:59;102903.81;;;17.71;62.36
21111;BME280;10713;51.912;4.494;2023-03-01T08:04:25;102905.34;;;18.03;61.54
21111;BME280;10713;51.912;4.494;2023-03-01T08:06:52;102904.03;;;18.59;59.57
21111;BME280;10713;51.912;4.494;2023-03-01T08:09:17;102905.75;;;18.83;54.92
21111;BME280;10713;51.912;4.494;2023-03-01T08:11:42;102903.38;;;18.98;53.84
21111;BME280;10713;51.912;4.494;2023-03-01T08:14:08;102912.69;;;19.09;54.55
21111;BME280;10713;51.912;4.494;2023-03-01T08:16:34;102917.06;;;18.46;51.89
21111;BME280;10713;51.912;4.494;2023-03-01T08:19:11;102915.84;;;18.08;49.83
21111;BME280;10713;51.912;4.494;2023-03-01T08:21:37;102907.88;;;17.58;49.60
21111;BME280;10713;51.912;4.494;2023-03-01T08:24:04;102908.03;;;17.28;48.58
21111;BME280;10713;51.912;4.494;2023-03-01T08:26:31;102910.91;;;17.22;46.80
21111;BME280;10713;51.912;4.494;2023-03-01T08:28:56;102903.44;;;16.80;45.65
21111;BME280;10713;51.912;4.494;2023-03-01T08:31:25;102909.31;;;17.16;45.53
21111;BME280;10713;51.912;4.494;2023-03-01T08:33:54;102901.00;;;17.75;45.28
21111;BME280;10713;51.912;4.494;2023-03-01T08:36:24;102900.84;;;17.55;43.55
21111;BME280;10713;51.912;4.494;2023-03-01T08:38:51;102911.78;;;17.47;44.25
21111;BME280;10713;51.912;4.494;2023-03-01T08:41:16;102906.00;;;17.60;43.48
21111;BME280;10713;51.912;4.494;2023-03-01T08:43:42;102908.44;;;17.16;42.36
21111;BME280;10713;51.912;4.494;2023-03-01T08:46:07;102905.47;;;16.98;41.64
21111;BME280;10713;51.912;4.494;2023-03-01T08:48:33;102908.75;;;16.52;41.26
21111;BME280;10713;51.912;4.494;2023-03-01T08:51:13;102910.56;;;16.51;40.54
21111;BME280;10713;51.912;4.494;2023-03-01T08:53:39;102895.63;;;16.16;41.16
21111;BME280;10713;51.912;4.494;2023-03-01T08:56:05;102893.41;;;16.30;40.55
21111;BME280;10713;51.912;4.494;2023-03-01T08:58:31;102899.06;;;16.49;40.22
21111;BME280;10713;51.912;4.494;2023-03-01T09:00:57;102907.09;;;15.88;39.39
21111;BME280;10713;51.912;4.494;2023-03-01T09:03:23;102902.97;;;15.76;38.70
21111;BME280;10713;51.912;4.494;2023-03-01T09:05:49;102901.88;;;15.18;38.51
21111;BME280;10713;51.912;4.494;2023-03-01T09:08:19;102894.41;;;14.98;38.91
21111;BME280;10713;51.912;4.494;2023-03-01T09:10:44;102895.44;;;15.27;39.04
21111;BME280;10713;51.912;4.494;2023-03-01T09:13:10;102885.78;;;15.55;38.52
21111;BME280;10713;51.912;4.494;2023-03-01T09:15:38;102886.72;;;15.54;38.20
21111;BME280;10713;51.912;4.494;2023-03-01T09:18:04;102879.72;;;15.50;38.00
21111;BME280;10713;51.912;4.494;2023-03-01T09:20:31;102882.59;;;15.43;37.82
21111;BME280;10713;51.912;4.494;2023-03-01T09:22:56;102887.09;;;15.73;38.35
21111;BME280;10713;51.912;4.494;2023-03-01T09:25:22;102866.31;;;15.86;38.66
21111;BME280;10713;51.912;4.494;2023-03-01T09:27:50;102869.53;;;15.97;37.96
21111;BME280;10713;51.912;4.494;2023-03-01T09:30:16;102864.53;;;16.44;38.49
21111;BME280;10713;51.912;4.494;2023-03-01T09:32:41;102864.41;;;16.49;38.24
21111;BME280;10713;51.912;4.494;2023-03-01T09:35:08;102859.78;;;16.26;37.15
21111;BME280;10713;51.912;4.494;2023-03-01T09:37:35;102870.41;;;15.68;35.92
21111;BME280;10713;51.912;4.494;2023-03-01T09:40:01;102864.44;;;15.26;37.69
21111;BME280;10713;51.912;4.494;2023-03-01T09:42:29;102870.44;;;15.32;37.56
21111;BME280;10713;51.912;4.494;2023-03-01T09:45:02;102865.47;;;14.86;37.03
21111;BME280;10713;51.912;4.494;2023-03-01T09:47:34;102874.22;;;14.91;37.17
21111;BME280;10713;51.912;4.494;2023-03-01T09:50:12;102866.22;;;14.91;37.26
21111;BME280;10713;51.912;4.494;2023-03-01T09:52:53;102860.59;;;15.03;36.39
21111;BME280;10713;51.912;4.494;2023-03-01T09:55:31;102869.94;;;15.18;36.49
21111;BME280;10713;51.912;4.494;2023-03-01T10:00:49;102853.38;;;15.74;38.05
21111;BME280;10713;51.912;4.494;2023-03-01T10:11:20;102854.53;;;14.22;37.20
21111;BME280;10713;51.912;4.494;2023-03-01T10:19:12;102843.22;;;14.14;37.26
21111;BME280;10713;51.912;4.494;2023-03-01T10:21:43;102840.56;;;14.14;38.14
21111;BME280;10713;51.912;4.494;2023-03-01T10:24:17;102845.63;;;14.25;36.64
21111;BME280;10713;51.912;4.494;2023-03-01T10:26:57;102839.09;;;14.39;37.66
21111;BME280;10713;51.912;4.494;2023-03-01T10:29:29;102829.66;;;14.26;38.38
21111;BME280;10713;51.912;4.494;2023-03-01T10:31:55;102826.84;;;14.32;37.53
21111;BME280;10713;51.912;4.494;2023-03-01T10:34:27;102825.53;;;14.50;37.48
21111;BME280;10713;51.912;4.494;2023-03-01T10:36:57;102832.72;;;14.47;37.82
21111;BME280;10713;51.912;4.494;2023-03-01T10:39:25;102831.75;;;13.71;37.15
21111;BME280;10713;51.912;4.494;2023-03-01T10:44:40;102839.47;;;12.32;39.46
21111;BME280;10713;51.912;4.494;2023-03-01T10:47:22;102832.19;;;11.83;40.19
21111;BME280;10713;51.912;4.494;2023-03-01T10:50:04;102814.53;;;11.83;40.97
21111;BME280;10713;51.912;4.494;2023-03-01T10:52:41;102821.28;;;12.10;41.25
21111;BME280;10713;51.912;4.494;2023-03-01T10:55:27;102825.41;;;11.62;40.80
21111;BME280;10713;51.912;4.494;2023-03-01T11:00:31;102813.28;;;11.41;42.31
21111;BME280;10713;51.912;4.494;2023-03-01T11:05:24;102791.09;;;11.54;43.44
21111;BME280;10713;51.912;4.494;2023-03-01T11:07:54;102800.53;;;11.75;43.31
21111;BME280;10713;51.912;4.494;2023-03-01T11:10:29;102794.88;;;11.33;43.00
21111;BME280;10713;51.912;4.494;2023-03-01T11:13:18;102788.44;;;10.72;43.58
21111;BME280;10713;51.912;4.494;2023-03-01T11:16:05;102790.53;;;10.26;45.19
21111;BME280;10713;51.912;4.494;2023-03-01T11:18:31;102782.81;;;9.97;45.53
21111;BME280;10713;51.912;4.494;2023-03-01T11:20:58;102784.72;;;9.65;45.65
21111;BME280;10713;51.912;4.494;2023-03-01T11:23:27;102775.16;;;9.35;46.64
21111;BME280;10713;51.912;4.494;2023-03-01T11:26:01;102787.53;;;9.09;47.24
21111;BME280;10713;51.912;4.494;2023-03-01T11:28:29;102785.81;;;8.91;47.60
21111;BME280;10713;51.912;4.494;2023-03-01T11:31:07;102784.06;;;8.73;47.39
21111;BME280;10713;51.912;4.494;2023-03-01T11:33:54;102778.78;;;8.87;48.13
21111;BME280;10713;51.912;4.494;2023-03-01T11:39:05;102772.66;;;8.52;49.14
21111;BME280;10713;51.912;4.494;2023-03-01T11:41:39;102764.72;;;8.34;49.33
21111;BME280;10713;51.912;4.494;2023-03-01T11:44:38;102765.66;;;8.48;49.55
21111;BME280;10713;51.912;4.494;2023-03-01T11:47:38;102777.06;;;8.44;48.56
21111;BME280;10713;51.912;4.494;2023-03-01T11:50:20;102775.22;;;8.20;48.00
21111;BME280;10713;51.912;4.494;2023-03-01T11:55:43;102754.19;;;8.28;47.89
21111;BME280;10713;51.912;4.494;2023-03-01T11:58:29;102755.97;;;8.33;48.78
21111;BME280;10713;51.912;4.494;2023-03-01T12:07:15;102740.13;;;9.10;48.34
21111;BME280;10713;51.912;4.494;2023-03-01T12:12:32;102733.09;;;9.05;49.70
21111;BME280;10713;51.912;4.494;2023-03-01T12:28:57;102720.00;;;8.31;47.08
21111;BME280;10713;51.912;4.494;2023-03-01T12:45:40;102704.06;;;7.47;49.60
21111;BME280;10713;51.912;4.494;2023-03-01T12:48:34;102697.16;;;7.87;49.01
21111;BME280;10713;51.912;4.494;2023-03-01T12:51:08;102725.22;;;7.94;48.70
21111;BME280;10713;51.912;4.494;2023-03-01T12:53:39;102699.78;;;7.76;48.59
21111;BME280;10713;51.912;4.494;2023-03-01T12:56:07;102713.78;;;7.75;49.47
21111;BME280;10713;51.912;4.494;2023-03-01T12:58:47;102704.16;;;7.86;49.47
21111;BME280;10713;51.912;4.494;2023-03-01T13:15:28;102686.66;;;8.11;48.86
21111;BME280;10713;51.912;4.494;2023-03-01T13:26:10;102662.09;;;8.34;49.12
21111;BME280;10713;51.912;4.494;2023-03-01T13:33:56;102648.97;;;8.14;49.75
21111;BME280;10713;51.912;4.494;2023-03-01T13:38:55;102643.69;;;8.12;49.88
21111;BME280;10713;51.912;4.494;2023-03-01T13:44:29;102627.91;;;8.12;49.82
21111;BME280;10713;51.912;4.494;2023-03-01T13:49:56;102636.69;;;8.13;49.80
21111;BME280;10713;51.912;4.494;2023-03-01T13:52:43;102629.66;;;8.03;49.27
21111;BME280;10713;51.912;4.494;2023-03-01T13:55:32;102631.44;;;7.90;49.91
21111;BME280;10713;51.912;4.494;2023-03-01T13:58:03;102613.03;;;7.93;50.28
21111;BME280;10713;51.912;4.494;2023-03-01T14:00:35;102616.50;;;8.18;50.56
21111;BME280;10713;51.912;4.494;2023-03-01T14:03:19;102599.84;;;8.33;50.13
21111;BME280;10713;51.912;4.494;2023-03-01T14:06:00;102610.34;;;8.27;49.68
21111;BME280;10713;51.912;4.494;2023-03-01T14:08:29;102615.63;;;8.15;49.60
21111;BME280;10713;51.912;4.494;2023-03-01T14:16:53;102591.09;;;8.03;49.36
21111;BME280;10713;51.912;4.494;2023-03-01T14:19:27;102583.19;;;8.17;49.54
21111;BME280;10713;51.912;4.494;2023-03-01T14:22:23;102578.81;;;8.30;49.69
21111;BME280;10713;51.912;4.494;2023-03-01T14:24:52;102570.03;;;8.45;49.81
21111;BME280;10713;51.912;4.494;2023-03-01T14:27:19;102574.38;;;8.53;49.61
21111;BME280;10713;51.912;4.494;2023-03-01T14:29:58;102565.63;;;8.42;48.59
21111;BME280;10713;51.912;4.494;2023-03-01T14:34:51;102552.47;;;8.36;49.87
21111;BME280;10713;51.912;4.494;2023-03-01T14:37:21;102542.81;;;8.41;50.33
21111;BME280;10713;51.912;4.494;2023-03-01T14:39:48;102533.19;;;8.39;50.13
21111;BME280;10713;51.912;4.494;2023-03-01T14:42:14;102536.69;;;8.24;50.04
21111;BME280;10713;51.912;4.494;2023-03-01T14:44:42;102540.22;;;8.21;50.43
21111;BME280;10713;51.912;4.494;2023-03-01T14:47:34;102534.06;;;8.24;49.72
21111;BME280;10713;51.912;4.494;2023-03-01T14:50:08;102526.19;;;8.18;49.62
21111;BME280;10713;51.912;4.494;2023-03-01T14:52:36;102531.50;;;8.10;49.55
21111;BME280;10713;51.912;4.494;2023-03-01T14:55:12;102525.34;;;8.00;50.49
21111;BME280;10713;51.912;4.494;2023-03-01T14:57:43;102527.97;;;8.05;50.27
21111;BME280;10713;51.912;4.494;2023-03-01T15:00:15;102527.09;;;8.09;50.70
21111;BME280;10713;51.912;4.494;2023-03-01T15:02:41;102522.69;;;8.22;50.58
21111;BME280;10713;51.912;4.494;2023-03-01T15:05:09;102514.75;;;8.26;50.04